Greenwood, South Carolina
Current Conditions -  °F | °C
As of 8:56 AM on Saturday 22 Nov 2014 (Local Time) from KGRD Reporting Station
Clear Clear  
Wind Chill: 30°   Ceiling: Unl
Heat Index: 36°   Visibility: 10mi
Dew Point: 20°   Wind: 8mph
Humidity: 52%   Direction: 50°NE
Pressure: 30.54"   Gusts: NA
Location:  34.19°N, 82.16°W
Report Text: KGRD 221356Z AUTO 05007KT 10SM CLR 02/M07 A3054 RMK AO2 SLP345 T00221067
Loading
Personal Weather Stations






























Interactive Weather Map New forecast layout! Learn more

10-Day Weather Forecast

Advertisements
Track Severe Weather on mobile